Warning: Javascript must be enabled to use all the features on this page!


Page Loading - Please Wait...

Click to hideNews Bulletins

Peak Streamflow for the Nation

USGS 04086600 MILWAUKEE RIVER NEAR CEDARBURG, WI

Ozaukee County, Wisconsin
Hydrologic Unit Code 04040003
Latitude  43°16'49", Longitude  87°56'33" NAD83
Drainage area 607  square miles
Gage datum 653.35 feet above NAVD88
Output formats
Table
Graph
Tab-separated file
peakfq (watstore) format
Reselect output format
Water
Year
Date Gage
Height
(feet)
Stream-
flow
(cfs)
1982 1982-04-03 11.182 3,140
1983 1983-04-10 9.92 3,040
1984 1984-06-19 9.89 2,910
1985 1985-03-02   2,7001,2,9
1986 1986-09-11 11.97 4,640
1987 1986-10-04 9.59 2,650
1988 1988-01-31 12.271 2,6009
1989 1989-03-27 12.21 4,860
1990 1990-03-16 11.14 3,910
1991 1991-06-15 8.582 1,910
1992 1992-03-09 8.522 1,870
1993 1993-04-21 12.04 4,700
1994 1994-03-22 8.942 2,160
1995 1995-08-29 7.70 1,330
1996 1996-06-18 12.88 5,500
1997 1997-06-22 8.842 2,060
1998 1998-04-02 10.43 3,310
1999 1999-07-22 10.18 3,110
2000 2000-05-20 9.212 2,360
2001 2001-04-12 9.51 2,580
2002 2002-04-10 8.40 1,790
2003 2003-05-12 8.40 1,790
2004 2004-05-23 13.11 5,720
2005 2005-02-15 8.472 1,970
2006 2006-03-13 9.27 2,410
2007 2007-03-15 11.122 4,1702
2008 2008-06-13 13.98 6,980
2009 2009-03-11 11.782 3,9702
2010 2010-03-13 9.692 2,9302
2011 2011-03-23 10.74 3,820
2012 2012-03-13 7.982 1,690
2013 2013-04-12 12.27 5,530
2014 2014-04-15 11.40 4,310
2015 2015-04-10 10.94 3,870
2016 2016-04-01 9.382 2,610
2017 2017-05-02 9.182 2,390
2018 2018-08-29 12.202 4,990
2019 2019-03-17 13.261,2 5,8602
2020 2019-10-03 12.98 6,000
2021 2021-08-08 9.11 2,340
?
  Peak Gage-Height Qualification Codes.
?
  Peak Streamflow Qualification Codes.